Time;durP1;ratioP1;P1;durP2;ratioP2;P2;SDS_P1;SDS_P2;PMS_P1;PMS_P2;Temp;Humidity;BMP_temperature;BMP_pressure;BME280_temperature;BME280_humidity;BME280_pressure;Samples;Min_cycle;Max_cycle;Signal;HPM_P1;HPM_P2
2022/10/09 00:01:05;;;;;;;6.03;4.07;;;;;;;9.78;nan;-24090.25;5097568;28;20201;-77
2022/10/09 00:03:32;;;;;;;6.97;3.63;;;;;;;-143.38;nan;55367.25;5097673;28;20192;-76
2022/10/09 00:05:57;;;;;;;4.63;3.50;;;;;;;22.29;81.03;59746.66;5079545;28;20189;-74
2022/10/09 00:08:22;;;;;;;5.57;3.67;;;;;;;;;;5097542;28;20178;-77
2022/10/09 00:10:48;;;;;;;6.23;4.20;;;;;;;;;;5098660;28;20178;-73
2022/10/09 00:13:13;;;;;;;6.77;3.77;;;;;;;;;;5097739;28;20166;-75
2022/10/09 00:15:39;;;;;;;7.47;4.20;;;;;;;;;;5098094;28;20177;-75
2022/10/09 00:18:06;;;;;;;3.50;3.13;;;;;;;10.24;nan;-24103.09;5097778;28;20173;-75
2022/10/09 00:20:38;;;;;;;9.07;4.37;;;;;;;10.18;nan;-24101.41;5097944;28;20234;-77
2022/10/09 00:23:05;;;;;;;6.33;3.73;;;;;;;10.07;nan;-24098.44;5078846;28;20763;-73
2022/10/09 00:25:30;;;;;;;5.33;3.50;;;;;;;10.26;nan;-24103.66;5097495;28;20192;-77
2022/10/09 00:27:57;;;;;;;5.30;3.13;;;;;;;10.30;nan;-24104.66;5097759;28;20181;-75
2022/10/09 00:30:22;;;;;;;6.80;4.03;;;;;;;10.21;nan;-24102.09;5079520;28;20173;-76
2022/10/09 00:32:48;;;;;;;5.17;3.70;;;;;;;9.79;nan;-24090.53;5098184;28;20171;-77
2022/10/09 00:35:13;;;;;;;6.13;3.53;;;;;;;9.19;nan;-24073.72;5097843;28;20564;-74
2022/10/09 00:37:39;;;;;;;8.03;3.80;;;;;;;9.70;nan;-24087.97;5097691;28;20173;-74
2022/10/09 00:40:05;;;;;;;8.07;3.90;;;;;;;9.05;nan;-24069.88;5075936;28;20252;-74
2022/10/09 00:42:30;;;;;;;5.97;3.73;;;;;;;9.90;nan;-24093.47;5076967;28;20597;-75
2022/10/09 00:45:01;;;;;;;7.17;3.97;;;;;;;9.96;nan;-24095.19;5074180;28;21122;-76
2022/10/09 00:47:33;;;;;;;7.30;4.10;;;;;;;10.15;nan;-24100.69;5093765;28;20621;-75
2022/10/09 00:50:11;;;;;;;4.67;3.57;;;;;;;10.21;nan;-24102.09;5093706;28;20641;-75
2022/10/09 00:52:36;;;;;;;4.67;3.63;;;;;;;9.82;nan;-24091.22;5093656;28;20578;-75
2022/10/09 00:55:03;;;;;;;6.10;3.23;;;;;;;10.06;nan;-24098.16;5094014;28;20249;-76
2022/10/09 00:57:31;;;;;;;6.27;4.17;;;;;;;9.81;nan;-24091.09;5093499;28;20176;-78
2022/10/09 01:00:00;;;;;;;6.87;3.93;;;;;;;10.17;nan;-24101.25;5093775;28;20641;-77
2022/10/09 01:02:26;;;;;;;8.10;3.60;;;;;;;10.16;nan;-24100.84;5093378;28;20192;-77
2022/10/09 01:04:51;;;;;;;6.03;3.07;;;;;;;9.87;nan;-24092.63;5093448;28;20644;-77
2022/10/09 01:07:26;;;;;;;5.43;3.57;;;;;;;10.11;nan;-24099.41;5093648;28;20165;-76
2022/10/09 01:09:54;;;;;;;6.63;3.87;;;;;;;10.11;nan;-24099.41;5093299;28;20165;-74
2022/10/09 01:12:25;;;;;;;4.73;3.40;;;;;;;10.06;nan;-24098.16;5093438;28;20173;-77
2022/10/09 01:15:15;;;;;;;6.40;3.93;;;;;;;9.68;nan;-24087.56;5081976;28;20255;-78
2022/10/09 01:17:47;;;;;;;5.57;3.80;;;;;;;9.84;nan;-24091.78;5098398;28;20269;-76
2022/10/09 01:20:40;;;;;;;6.10;4.27;;;;;;;10.00;nan;-24096.31;5088166;28;20251;-77
2022/10/09 01:24:00;;;;;;;9.00;4.27;;;;;;;10.00;nan;-24096.31;5085564;28;20738;-78
2022/10/09 01:27:04;;;;;;;4.80;3.33;;;;;;;10.01;nan;-24096.59;4992416;28;20216;-74
2022/10/09 01:29:39;;;;;;;5.30;3.10;;;;;;;9.90;nan;-24093.47;5086960;28;20223;-77
2022/10/09 01:32:06;;;;;;;5.30;3.53;;;;;;;9.75;nan;-24089.53;5071178;28;21327;-75
2022/10/09 01:34:32;;;;;;;3.43;2.80;;;;;;;9.96;nan;-24095.31;5101870;28;20208;-76
2022/10/09 01:36:58;;;;;;;5.93;3.83;;;;;;;9.36;nan;-24078.38;5092845;28;20778;-77
2022/10/09 01:39:25;;;;;;;7.93;3.73;;;;;;;9.86;nan;-24092.34;5078638;28;20784;-73
2022/10/09 01:41:53;;;;;;;4.83;3.20;;;;;;;9.47;nan;-24081.47;5083765;28;20556;-76
2022/10/09 01:44:25;;;;;;;5.47;3.53;;;;;;;9.81;nan;-24090.94;5091986;28;20236;-76
2022/10/09 01:46:51;;;;;;;6.07;3.43;;;;;;;9.71;nan;-24088.41;5096906;28;20581;-74
2022/10/09 01:49:27;;;;;;;5.17;3.43;;;;;;;9.87;nan;-24092.78;5074803;28;20190;-76
2022/10/09 01:52:02;;;;;;;6.00;3.53;;;;;;;9.87;nan;-24092.63;5074598;28;20162;-75
2022/10/09 01:54:47;;;;;;;5.87;3.40;;;;;;;9.84;nan;-24091.78;5081323;28;20782;-73
2022/10/09 01:57:17;;;;;;;7.40;3.50;;;;;;;9.93;nan;-24094.47;5081259;28;20660;-77
2022/10/09 01:59:46;;;;;;;4.83;3.00;;;;;;;9.91;nan;-24093.91;5091228;28;20243;-76
2022/10/09 02:02:12;;;;;;;5.97;3.30;;;;;;;9.95;nan;-24095.03;5097487;28;20208;-76
2022/10/09 02:04:41;;;;;;;4.03;2.80;;;;;;;9.66;nan;-24086.97;5084544;28;20232;-74
2022/10/09 02:07:06;;;;;;;6.50;3.13;;;;;;;10.03;nan;-24097.16;5084846;28;20565;-77
2022/10/09 02:09:34;;;;;;;5.23;3.47;;;;;;;10.02;nan;-24097.03;5080728;28;20176;-75
2022/10/09 02:12:05;;;;;;;5.00;3.00;;;;;;;9.37;nan;-24078.78;5094028;28;20177;-74
2022/10/09 02:14:32;;;;;;;3.90;2.90;;;;;;;10.03;nan;-24097.31;5093507;28;20177;-75
2022/10/09 02:17:10;;;;;;;5.10;3.10;;;;;;;9.86;nan;-24092.34;5089971;28;20178;-78
2022/10/09 02:19:41;;;;;;;3.33;2.63;;;;;;;9.74;nan;-24089.25;5100246;28;20184;-75
2022/10/09 02:22:13;;;;;;;5.60;3.40;;;;;;;9.83;nan;-24091.50;5076277;28;20504;-77
2022/10/09 02:24:40;;;;;;;10.93;3.73;;;;;;;9.34;nan;-24077.81;5083852;28;20208;-77
2022/10/09 02:27:06;;;;;;;5.80;2.97;;;;;;;9.67;nan;-24087.13;5077790;28;20201;-76
2022/10/09 02:29:32;;;;;;;5.17;3.03;;;;;;;9.65;nan;-24086.56;5079059;28;20188;-76
2022/10/09 02:31:57;;;;;;;4.20;3.07;;;;;;;9.66;nan;-24086.84;5081269;28;20193;-75
2022/10/09 02:34:23;;;;;;;6.77;3.60;;;;;;;9.30;nan;-24076.81;5095097;28;20187;-72
2022/10/09 02:36:49;;;;;;;4.23;3.20;;;;;;;9.22;nan;-24074.69;5092956;28;20177;-76
2022/10/09 02:39:15;;;;;;;5.63;3.00;;;;;;;9.25;nan;-24075.41;5078253;28;20210;-74
2022/10/09 02:41:40;;;;;;;5.13;3.33;;;;;;;9.70;nan;-24087.97;5089300;28;20189;-75
2022/10/09 02:44:06;;;;;;;4.30;2.63;;;;;;;9.10;nan;-24071.31;5089178;28;20295;-74
2022/10/09 02:46:32;;;;;;;5.60;3.60;;;;;;;9.26;nan;-24075.69;5079886;28;20220;-76
2022/10/09 02:48:58;;;;;;;6.27;3.23;;;;;;;9.46;nan;-24081.19;5094366;28;20258;-75
2022/10/09 02:51:24;;;;;;;5.70;3.63;;;;;;;9.49;nan;-24082.03;5073309;28;20209;-76
2022/10/09 02:53:52;;;;;;;5.93;3.77;;;;;;;9.40;nan;-24079.63;5075309;28;20200;-76
2022/10/09 02:56:19;;;;;;;4.70;3.20;;;;;;;9.37;nan;-24078.78;5095951;28;20238;-77
2022/10/09 02:58:44;;;;;;;9.17;3.87;;;;;;;9.50;nan;-24082.47;5086306;28;20290;-72
2022/10/09 03:01:10;;;;;;;8.50;3.77;;;;;;;9.31;nan;-24077.09;5079190;28;20265;-76
2022/10/09 03:03:35;;;;;;;5.13;3.03;;;;;;;9.08;nan;-24070.59;5099179;28;20232;-75
2022/10/09 03:06:10;;;;;;;7.77;3.30;;;;;;;9.03;nan;-24069.31;5092488;28;20632;-76
2022/10/09 03:08:38;;;;;;;4.83;3.30;;;;;;;9.26;nan;-24075.81;5083615;28;20193;-75
2022/10/09 03:11:04;;;;;;;6.50;3.50;;;;;;;9.04;nan;-24069.59;5082227;28;20188;-72
2022/10/09 03:13:30;;;;;;;6.10;3.50;;;;;;;9.06;nan;-24070.16;5098064;28;20658;-74
2022/10/09 03:16:04;;;;;;;5.73;3.37;;;;;;;9.39;nan;-24079.34;5090852;28;20202;-76
2022/10/09 03:18:30;;;;;;;5.83;3.03;;;;;;;8.95;nan;-24066.91;5095603;28;20550;-74
2022/10/09 03:20:56;;;;;;;4.07;3.33;;;;;;;9.14;nan;-24072.28;5088647;28;20219;-75
2022/10/09 03:23:21;;;;;;;5.33;3.20;;;;;;;9.08;nan;-24070.72;5092949;28;20244;-76
2022/10/09 03:26:01;;;;;;;4.13;3.07;;;;;;;9.18;nan;-24073.56;5097436;28;20580;-74
2022/10/09 03:28:27;;;;;;;4.40;3.13;;;;;;;9.26;nan;-24075.81;5064152;28;20212;-76
2022/10/09 03:30:53;;;;;;;5.30;3.37;;;;;;;8.88;nan;-24065.22;5096632;28;20774;-74
2022/10/09 03:33:18;;;;;;;4.97;3.30;;;;;;;9.20;nan;-24074.13;5078141;28;20177;-74
2022/10/09 03:35:45;;;;;;;4.03;3.60;;;;;;;8.82;nan;-24063.53;5089638;28;20263;-73
2022/10/09 03:38:12;;;;;;;5.07;2.97;;;;;;;9.10;nan;-24071.16;5073058;28;20232;-76
2022/10/09 03:40:38;;;;;;;4.90;3.23;;;;;;;9.17;nan;-24073.28;5093757;28;20255;-75
2022/10/09 03:43:03;;;;;;;6.37;3.27;;;;;;;9.02;nan;-24069.03;5072867;28;20307;-77
2022/10/09 03:45:29;;;;;;;8.20;3.93;;;;;;;9.17;nan;-24073.13;5091408;28;20193;-75
2022/10/09 03:47:54;;;;;;;4.37;3.20;;;;;;;9.01;nan;-24068.63;5090622;28;20530;-75
2022/10/09 03:50:19;;;;;;;4.07;2.90;;;;;;;9.00;nan;-24068.47;5083383;28;20709;-75
2022/10/09 03:52:45;;;;;;;6.80;3.13;;;;;;;9.00;nan;-24068.47;5076071;28;20554;-77
2022/10/09 03:55:10;;;;;;;7.93;3.33;;;;;;;9.00;nan;-24068.34;5076625;28;20283;-76
2022/10/09 03:57:36;;;;;;;4.83;2.87;;;;;;;9.10;nan;-24071.31;5082440;28;20181;-77
2022/10/09 04:00:03;;;;;;;6.20;4.13;;;;;;;9.09;nan;-24071.03;5065771;28;20280;-73
2022/10/09 04:02:31;;;;;;;4.27;3.20;;;;;;;8.51;nan;-24054.75;5075663;28;20231;-75
2022/10/09 04:04:56;;;;;;;3.87;2.83;;;;;;;9.17;nan;-24073.13;5080785;28;20275;-77
2022/10/09 04:07:21;;;;;;;7.67;3.43;;;;;;;9.16;nan;-24073.00;5076047;28;20638;-75
2022/10/09 04:09:47;;;;;;;6.00;3.57;;;;;;;8.73;nan;-24060.97;5064080;28;20181;-76
2022/10/09 04:12:12;;;;;;;6.47;3.43;;;;;;;8.70;nan;-24060.13;5075472;28;21556;-76
2022/10/09 04:14:38;;;;;;;4.30;2.93;;;;;;;8.85;nan;-24064.38;5076314;28;20188;-74
2022/10/09 04:17:03;;;;;;;5.00;3.23;;;;;;;9.04;nan;-24069.59;5061236;28;20186;-76
2022/10/09 04:19:29;;;;;;;5.77;3.77;;;;;;;8.96;nan;-24067.34;5068671;28;20561;-74
2022/10/09 04:21:54;;;;;;;5.03;3.00;;;;;;;7.95;nan;-24039.03;5080395;28;20193;-76
2022/10/09 04:24:19;;;;;;;4.20;2.90;;;;;;;9.17;nan;-24073.28;5078988;28;20236;-76
2022/10/09 04:26:45;;;;;;;5.13;3.47;;;;;;;9.02;nan;-24068.91;5079001;28;20182;-73
2022/10/09 04:29:10;;;;;;;6.43;4.07;;;;;;;9.02;nan;-24068.91;5079248;28;20609;-75
2022/10/09 04:31:36;;;;;;;4.70;2.83;;;;;;;9.06;nan;-24070.03;5078324;28;20185;-76
2022/10/09 04:34:02;;;;;;;2.70;2.50;;;;;;;8.81;nan;-24063.09;5078619;28;20182;-77
2022/10/09 04:36:27;;;;;;;5.73;3.63;;;;;;;9.12;nan;-24071.72;5079559;28;20173;-77
2022/10/09 04:38:53;;;;;;;4.17;3.47;;;;;;;9.14;nan;-24072.28;5080071;28;20177;-75
2022/10/09 04:41:19;;;;;;;4.43;3.13;;;;;;;8.98;nan;-24067.75;5078639;28;20209;-76
2022/10/09 04:43:44;;;;;;;4.90;3.23;;;;;;;8.88;nan;-24065.22;5079525;28;21252;-76
2022/10/09 04:46:12;;;;;;;3.23;2.93;;;;;;;8.75;nan;-24061.41;5084071;28;20572;-77
2022/10/09 04:48:39;;;;;;;5.63;3.20;;;;;;;9.12;nan;-24071.88;5079062;28;20185;-76
2022/10/09 04:51:05;;;;;;;4.53;2.97;;;;;;;9.39;nan;-24079.34;5067661;28;20189;-80
2022/10/09 04:53:33;;;;;;;6.00;3.03;;;;;;;9.52;nan;-24083.03;5080400;28;20182;-76
2022/10/09 04:56:03;;;;;;;6.43;3.40;;;;;;;9.55;nan;-24083.88;5079548;28;20189;-77
2022/10/09 04:58:30;;;;;;;5.00;3.27;;;;;;;9.50;nan;-24082.47;5081623;28;20200;-75
2022/10/09 05:00:56;;;;;;;4.97;3.37;;;;;;;9.62;nan;-24085.84;5061950;28;20181;-72
2022/10/09 05:03:21;;;;;;;4.40;2.80;;;;;;;9.77;nan;-24090.09;5077395;28;20189;-75
2022/10/09 05:05:47;;;;;;;5.77;3.60;;;;;;;9.59;nan;-24085.00;5078676;28;20175;-76
2022/10/09 05:08:12;;;;;;;6.33;3.33;;;;;;;10.15;nan;-24100.69;5078882;28;21984;-75
2022/10/09 05:10:38;;;;;;;5.00;3.80;;;;;;;10.15;nan;-24100.53;5078148;28;20217;-77
2022/10/09 05:13:04;;;;;;;3.40;3.03;;;;;;;10.37;nan;-24106.75;5066170;28;20644;-76
2022/10/09 05:15:29;;;;;;;5.97;3.20;;;;;;;10.48;nan;-24109.88;5066189;28;20296;-76
2022/10/09 05:17:56;;;;;;;5.47;3.60;;;;;;;10.81;nan;-24119.03;5066765;28;20273;-78
2022/10/09 05:20:21;;;;;;;3.60;2.93;;;;;;;10.91;nan;-24121.72;5067533;28;20192;-77
2022/10/09 05:22:47;;;;;;;4.83;3.27;;;;;;;10.99;nan;-24124.13;5078622;28;20229;-76
2022/10/09 05:25:13;;;;;;;4.80;3.37;;;;;;;9.71;nan;-24088.25;5077086;28;20651;-76
2022/10/09 05:27:39;;;;;;;5.83;3.23;;;;;;;11.23;nan;-24130.59;5077653;28;20186;-78
2022/10/09 05:30:05;;;;;;;5.40;3.23;;;;;;;11.34;nan;-24133.69;5065868;28;20216;-79
2022/10/09 05:32:31;;;;;;;4.73;3.40;;;;;;;11.38;nan;-24134.97;5078789;28;20189;-77
2022/10/09 05:34:57;;;;;;;7.40;3.50;;;;;;;11.39;nan;-24135.25;5065069;28;20667;-78
2022/10/09 05:37:22;;;;;;;4.40;3.03;;;;;;;11.45;nan;-24136.94;5076209;28;20626;-79
2022/10/09 05:39:47;;;;;;;3.97;3.28;;;;;;;11.49;nan;-24138.06;5077520;28;20182;-77
2022/10/09 05:42:13;;;;;;;4.37;2.90;;;;;;;11.59;nan;-24140.59;5065975;28;20272;-78
2022/10/09 05:44:38;;;;;;;3.07;2.67;;;;;;;11.59;nan;-24140.75;5076749;28;20198;-77
2022/10/09 05:47:04;;;;;;;3.90;3.27;;;;;;;11.59;nan;-24140.75;5076178;28;20597;-77
2022/10/09 05:49:29;;;;;;;5.67;3.80;;;;;;;11.73;nan;-24144.56;5078500;28;20181;-79
2022/10/09 05:51:55;;;;;;;3.93;3.13;;;;;;;11.91;nan;-24149.63;5076245;28;20181;-78
2022/10/09 05:54:20;;;;;;;5.73;3.00;;;;;;;11.86;nan;-24148.34;5076249;28;20235;-77
2022/10/09 05:56:46;;;;;;;5.47;3.70;;;;;;;12.02;nan;-24152.56;5078138;28;20193;-76
2022/10/09 05:59:16;;;;;;;4.88;3.17;;;;;;;11.91;nan;-24149.63;5066321;28;20189;-76
2022/10/09 06:01:45;;;;;;;6.60;3.15;;;;;;;11.98;nan;-24151.59;5060130;28;20239;-75
2022/10/09 06:04:16;;;;;;;4.57;3.10;;;;;;;12.36;nan;-24162.28;5082615;28;20205;-74
2022/10/09 06:06:43;;;;;;;6.07;3.47;;;;;;;12.47;nan;-24165.09;5077584;28;20178;-77
2022/10/09 06:09:10;;;;;;;6.50;3.60;;;;;;;12.47;nan;-24165.09;5076975;28;20234;-77
2022/10/09 06:11:37;;;;;;;5.18;3.50;;;;;;;12.09;nan;-24154.69;5063758;28;20184;-77
2022/10/09 06:14:05;;;;;;;4.75;2.80;;;;;;;12.64;nan;-24170.03;5091789;28;20234;-77
2022/10/09 06:16:35;;;;;;;5.13;3.47;;;;;;;12.84;nan;-24175.66;5075349;28;20185;-77
2022/10/09 06:19:01;;;;;;;6.78;3.05;;;;;;;13.08;nan;-24182.13;5092070;28;20226;-76
2022/10/09 06:21:26;;;;;;;5.20;3.03;;;;;;;12.82;nan;-24174.94;5073848;28;20189;-77
2022/10/09 06:23:54;;;;;;;3.85;3.00;;;;;;;13.23;nan;-24186.47;5089577;28;20281;-77
2022/10/09 06:26:21;;;;;;;5.75;3.17;;;;;;;13.29;nan;-24188.03;5096555;28;20212;-77
2022/10/09 06:28:47;;;;;;;4.97;3.30;;;;;;;13.29;nan;-24188.03;5072462;28;20186;-75
2022/10/09 06:31:21;;;;;;;4.07;3.03;;;;;;;13.39;nan;-24190.69;5075055;28;20170;-77
2022/10/09 06:33:48;;;;;;;5.53;3.30;;;;;;;13.48;nan;-24193.22;5090628;28;20220;-78
2022/10/09 06:36:16;;;;;;;6.85;4.03;;;;;;;13.54;nan;-24195.03;5090172;28;20247;-77
2022/10/09 06:38:42;;;;;;;5.03;3.53;;;;;;;13.54;nan;-24196.03;5090960;28;20601;-79
2022/10/09 06:41:10;;;;;;;6.05;3.53;;;;;;;13.58;nan;-24196.03;5090265;28;20181;-73
2022/10/09 06:43:36;;;;;;;5.63;3.97;;;;;;;13.58;nan;-24196.03;5073543;28;20224;-77
2022/10/09 06:46:03;;;;;;;5.18;3.88;;;;;;;13.58;nan;-24180.72;5090361;28;20217;-75
2022/10/09 06:48:30;;;;;;;6.07;3.80;;;;;;;13.03;nan;-24180.72;5073303;28;20222;-77
2022/10/09 06:51:11;;;;;;;6.28;3.15;;;;;;;14.09;nan;-24210.34;5092044;28;20658;-77
2022/10/09 06:53:38;;;;;;;6.28;3.67;;;;;;;14.07;nan;-24209.63;5091742;28;20172;-79
2022/10/09 06:56:04;;;;;;;4.40;3.13;;;;;;;13.98;nan;-24207.25;5070772;28;20193;-74
2022/10/09 06:58:30;;;;;;;4.93;3.67;;;;;;;13.98;nan;-24207.25;5082023;28;20636;-79
2022/10/09 07:01:05;;;;;;;6.75;3.65;;;;;;;14.44;nan;-24219.88;5078556;28;20276;-75
2022/10/09 07:03:30;;;;;;;4.75;3.17;;;;;;;14.29;nan;-24215.69;5071325;28;20264;-78
2022/10/09 07:06:17;;;;;;;4.32;2.88;;;;;;;14.34;nan;-24217.22;5088475;28;20189;-78
2022/10/09 07:08:45;;;;;;;4.47;3.17;;;;;;;14.56;nan;-24223.41;5094941;28;20612;-72
2022/10/09 07:11:19;;;;;;;5.22;3.47;;;;;;;14.62;nan;-24224.94;5091097;28;20203;-78
2022/10/09 07:13:45;;;;;;;5.43;3.30;;;;;;;14.78;nan;-24229.41;5073593;28;20177;-77
2022/10/09 07:16:11;;;;;;;4.40;2.97;;;;;;;14.78;nan;-24229.41;5081722;28;20180;-74
2022/10/09 07:18:37;;;;;;;3.92;3.10;;;;;;;15.64;nan;-24253.09;5071615;28;20193;-77
2022/10/09 07:21:07;;;;;;;7.35;3.25;;;;;;;15.64;nan;-24253.09;5073142;28;20222;-78
2022/10/09 07:23:34;;;;;;;5.53;3.60;;;;;;;15.52;nan;-24249.88;5090765;28;20264;-77
2022/10/09 07:26:01;;;;;;;5.57;3.35;;;;;;;15.95;nan;-24261.63;5091286;28;20657;-77
2022/10/09 07:28:28;;;;;;;5.97;3.25;;;;;;;16.22;nan;-24269.19;5091189;28;20177;-77
2022/10/09 07:30:54;;;;;;;4.82;3.25;;;;;;;16.63;nan;-24280.50;5091387;28;20248;-75
2022/10/09 07:33:20;;;;;;;4.50;3.38;;;;;;;16.55;nan;-24278.28;5091455;28;20264;-77
2022/10/09 07:35:56;;;;;;;5.03;3.05;;;;;;;16.75;nan;-24283.88;5073356;28;20215;-78
2022/10/09 07:38:23;;;;;;;4.95;3.53;;;;;;;16.53;nan;-24277.72;5088940;28;20185;-79
2022/10/09 07:40:48;;;;;;;3.92;2.67;;;;;;;16.73;nan;-24283.44;5095675;28;20200;-77
2022/10/09 07:43:15;;;;;;;4.30;3.05;;;;;;;;;;5090892;28;20484;-76
2022/10/09 07:45:40;;;;;;;4.15;2.85;;;;;;;17.56;nan;-24306.34;5091340;28;20250;-79
2022/10/09 07:48:05;;;;;;;5.80;3.45;;;;;;;17.50;nan;-24304.66;5091944;28;20189;-78
2022/10/09 07:50:31;;;;;;;4.40;3.03;;;;;;;17.87;nan;-24314.72;5095295;28;20177;-78
2022/10/09 07:52:56;;;;;;;4.68;3.58;;;;;;;18.27;nan;-24325.88;5094604;28;20656;-75
2022/10/09 07:55:22;;;;;;;4.65;3.33;;;;;;;18.39;nan;-24329.22;5077574;28;20201;-77
2022/10/09 07:57:47;;;;;;;4.85;3.22;;;;;;;18.57;nan;-24334.09;5096295;28;20714;-80
2022/10/09 08:00:12;;;;;;;6.88;3.40;;;;;;;18.90;nan;-24343.28;5078068;28;20173;-79
2022/10/09 08:02:38;;;;;;;4.13;3.13;;;;;;;18.78;nan;-24339.78;5072942;28;20193;-76
2022/10/09 08:05:04;;;;;;;6.82;3.45;;;;;;;18.99;nan;-24345.66;5102610;28;20740;-76
2022/10/09 08:07:29;;;;;;;4.78;3.05;;;;;;;18.60;nan;-24334.91;5077912;28;20205;-76
2022/10/09 08:09:54;;;;;;;4.85;3.10;;;;;;;19.11;nan;-24348.97;5073249;28;20261;-78
2022/10/09 08:12:20;;;;;;;5.15;3.65;;;;;;;19.00;nan;-24345.91;5095010;28;20261;-75
2022/10/09 08:14:47;;;;;;;4.13;3.15;;;;;;;19.41;nan;-24357.19;5094648;28;20192;-76
2022/10/09 08:17:14;;;;;;;5.43;3.22;;;;;;;19.35;nan;-24355.66;5095149;28;20169;-75
2022/10/09 08:19:39;;;;;;;4.65;3.35;;;;;;;19.04;nan;-24347.03;5095030;28;20173;-74
2022/10/09 08:22:04;;;;;;;5.18;2.83;;;;;;;19.27;nan;-24353.44;5094603;28;20174;-77
2022/10/09 08:24:30;;;;;;;6.10;3.40;;;;;;;19.54;nan;-24360.66;5076265;28;20231;-75
2022/10/09 08:26:56;;;;;;;5.55;3.30;;;;;;;19.42;nan;-24357.59;5094443;28;20173;-77
2022/10/09 08:29:22;;;;;;;4.63;3.00;;;;;;;20.06;nan;-24375.13;5071666;28;20182;-76
2022/10/09 08:31:47;;;;;;;4.88;2.97;;;;;;;20.10;nan;-24376.25;5101601;28;20636;-77
2022/10/09 08:34:12;;;;;;;4.35;2.97;;;;;;;20.49;nan;-24386.94;5096214;28;20216;-77
2022/10/09 08:36:38;;;;;;;3.55;2.88;;;;;;;20.29;nan;-24381.50;5094895;28;20188;-76
2022/10/09 08:39:04;;;;;;;5.45;2.65;;;;;;;20.41;nan;-24384.72;5075921;28;20255;-77
2022/10/09 08:41:42;;;;;;;4.28;3.00;;;;;;;20.86;nan;-24396.91;5094147;28;20186;-76
2022/10/09 08:44:22;;;;;;;8.68;3.17;;;;;;;20.61;nan;-24390.25;5073142;28;20200;-76
2022/10/09 08:47:02;;;;;;;4.20;2.70;;;;;;;21.03;nan;-24401.63;5084493;28;20183;-75
2022/10/09 08:49:44;;;;;;;4.55;2.78;;;;;;;20.67;nan;-24391.78;5093007;28;20220;-75
2022/10/09 08:52:35;;;;;;;4.35;2.45;;;;;;;20.75;nan;-24393.88;5077777;28;20184;-76
2022/10/09 08:55:12;;;;;;;4.20;2.58;;;;;;;20.36;nan;-24383.31;5093995;28;20208;-77
2022/10/09 08:57:38;;;;;;;4.47;2.78;;;;;;;20.33;nan;-24382.50;5093963;28;20169;-74
2022/10/09 09:00:13;;;;;;;4.35;2.70;;;;;;;20.32;nan;-24382.22;5093275;28;20173;-75
2022/10/09 09:03:01;;;;;;;4.55;2.85;;;;;;;20.38;nan;-24383.75;5075167;28;20677;-78
2022/10/09 09:05:49;;;;;;;4.90;2.58;;;;;;;20.35;nan;-24383.03;5092956;28;20217;-78
2022/10/09 09:08:32;;;;;;;5.10;2.67;;;;;;;20.24;nan;-24380.00;5093896;28;20191;-78
2022/10/09 09:11:18;;;;;;;3.60;2.58;;;;;;;20.80;nan;-24395.25;5093933;28;20173;-76
2022/10/09 09:14:10;;;;;;;4.55;2.65;;;;;;;20.95;nan;-24399.41;5093856;28;20172;-76
2022/10/09 09:17:11;;;;;;;3.35;2.40;;;;;;;20.94;nan;-24399.28;5075519;28;20200;-78
2022/10/09 09:19:49;;;;;;;5.45;2.55;;;;;;;21.54;nan;-24415.66;5093991;28;20660;-77
2022/10/09 09:22:15;;;;;;;3.17;2.38;;;;;;;21.66;nan;-24418.81;5091986;28;20176;-76
2022/10/09 09:24:44;;;;;;;4.40;2.50;;;;;;;21.91;nan;-24425.75;5075099;28;20193;-78
2022/10/09 09:27:13;;;;;;;5.72;2.83;;;;;;;21.79;nan;-24422.44;5092993;28;20173;-77
2022/10/09 09:29:43;;;;;;;4.38;2.70;;;;;;;21.91;nan;-24425.91;5075273;28;20174;-76
2022/10/09 09:32:16;;;;;;;4.13;2.17;;;;;;;22.15;nan;-24432.25;5075208;28;20169;-78
2022/10/09 09:34:42;;;;;;;4.63;2.78;;;;;;;22.25;nan;-24435.03;5092931;28;20226;-74
2022/10/09 09:37:11;;;;;;;4.20;2.60;;;;;;;22.09;nan;-24430.59;5074591;28;20255;-75
2022/10/09 09:39:37;;;;;;;3.42;2.40;;;;;;;22.04;nan;-24429.34;5092686;28;20184;-75
2022/10/09 09:42:08;;;;;;;3.03;2.50;;;;;;;22.16;nan;-24432.69;5093448;28;20158;-77
2022/10/09 09:44:38;;;;;;;4.18;2.65;;;;;;;22.26;nan;-24435.31;5092996;28;20274;-76
2022/10/09 09:47:13;;;;;;;5.05;2.63;;;;;;;22.41;nan;-24439.47;5092984;28;20158;-75
2022/10/09 09:49:52;;;;;;;3.50;2.40;;;;;;;22.35;nan;-24437.78;5093066;28;20186;-75
2022/10/09 09:52:18;;;;;;;4.05;2.40;;;;;;;22.39;nan;-24439.03;5074655;28;20193;-60
2022/10/09 09:54:47;;;;;;;3.53;2.30;;;;;;;22.72;nan;-24447.91;5092101;28;20246;-60
2022/10/09 09:57:26;;;;;;;5.70;2.33;;;;;;;22.86;nan;-24451.91;5092911;28;20200;-60
2022/10/09 09:59:52;;;;;;;3.17;2.30;;;;;;;22.50;nan;-24441.94;5092326;28;20166;-60
2022/10/09 10:02:20;;;;;;;4.78;2.38;;;;;;;22.10;nan;-24430.88;5092488;28;20178;-60
2022/10/09 10:04:50;;;;;;;4.90;2.20;;;;;;;22.11;nan;-24431.28;5092359;28;20208;-60
2022/10/09 10:07:44;;;;;;;3.30;2.40;;;;;;;22.06;nan;-24429.78;5090145;28;20272;-59
2022/10/09 10:10:21;;;;;;;3.20;2.13;;;;;;;22.30;nan;-24436.41;5083936;28;20679;-61
2022/10/09 10:12:52;;;;;;;2.58;2.15;;;;;;;22.19;nan;-24433.50;5091008;28;20260;-60
2022/10/09 10:15:21;;;;;;;3.67;2.20;;;;;;;22.32;nan;-24436.97;5090088;28;20170;-59
2022/10/09 10:17:53;;;;;;;5.53;2.80;;;;;;;22.48;nan;-24441.53;5074228;28;20200;-60
2022/10/09 10:20:19;;;;;;;3.40;2.33;;;;;;;22.88;nan;-24452.31;5092407;28;20165;-60
2022/10/09 10:22:53;;;;;;;5.50;3.00;;;;;;;22.68;nan;-24446.94;5092349;28;20722;-60
2022/10/09 10:25:22;;;;;;;3.45;2.42;;;;;;;23.09;nan;-24458.00;5091638;28;20698;-60
2022/10/09 10:27:51;;;;;;;6.75;2.60;;;;;;;23.05;nan;-24457.03;5092320;28;20173;-62
2022/10/09 10:30:18;;;;;;;2.85;2.13;;;;;;;22.89;nan;-24452.72;5091590;28;20260;-60
2022/10/09 10:33:23;;;;;;;4.32;2.33;;;;;;;22.69;nan;-24447.06;5091232;28;20541;-60
2022/10/09 10:35:51;;;;;;;3.00;2.50;;;;;;;22.51;nan;-24442.22;5074710;28;20276;-60
2022/10/09 10:38:35;;;;;;;3.88;2.60;;;;;;;22.65;nan;-24446.09;5092582;28;20181;-60
2022/10/09 10:41:32;;;;;;;3.47;2.40;;;;;;;22.70;nan;-24447.34;5091380;28;20181;-60
2022/10/09 10:44:06;;;;;;;4.18;2.40;;;;;;;22.68;nan;-24446.78;5091521;28;20200;-61
2022/10/09 10:46:59;;;;;;;4.38;2.60;;;;;;;22.69;nan;-24447.19;5091027;28;20651;-60
2022/10/09 10:49:25;;;;;;;3.17;2.50;;;;;;;22.70;nan;-24447.50;5090336;28;20174;-60
2022/10/09 10:52:31;;;;;;;2.95;2.28;;;;;;;23.06;nan;-24457.16;5091123;28;20189;-60
2022/10/09 10:55:21;;;;;;;3.58;2.58;;;;;;;23.11;nan;-24458.69;5091306;28;20583;-60
2022/10/09 10:58:19;;;;;;;4.15;2.50;;;;;;;23.55;nan;-24470.69;5091415;28;20177;-61
2022/10/09 11:01:02;;;;;;;2.90;2.20;;;;;;;23.71;nan;-24475.13;5083487;28;20181;-60
2022/10/09 11:03:44;;;;;;;4.30;2.72;;;;;;;23.82;nan;-24478.00;5090897;28;20169;-59
2022/10/09 11:06:27;;;;;;;2.85;2.30;;;;;;;23.51;nan;-24469.59;5090998;28;20161;-61
2022/10/09 11:08:55;;;;;;;4.00;2.50;;;;;;;24.01;nan;-24483.25;5091231;28;20161;-61
2022/10/09 11:11:38;;;;;;;5.00;2.88;;;;;;;24.04;nan;-24483.94;5090809;28;20558;-60
2022/10/09 11:14:38;;;;;;;2.90;2.28;;;;;;;24.15;nan;-24486.97;5090651;28;20180;-60
2022/10/09 11:17:09;;;;;;;4.15;2.42;;;;;;;23.59;nan;-24471.66;5091059;28;20161;-60
2022/10/09 11:19:56;;;;;;;2.90;2.20;;;;;;;23.23;nan;-24461.84;5091289;28;20177;-60
2022/10/09 11:22:34;;;;;;;3.78;2.65;;;;;;;23.27;nan;-24462.97;5090869;28;20221;-61
2022/10/09 11:25:18;;;;;;;3.28;2.20;;;;;;;23.36;nan;-24465.44;5090929;28;20197;-60
2022/10/09 11:28:06;;;;;;;3.78;2.50;;;;;;;23.28;nan;-24463.38;5090981;28;20180;-60
2022/10/09 11:30:59;;;;;;;4.03;3.00;;;;;;;23.16;nan;-24460.06;5090426;28;20550;-60
2022/10/09 11:34:04;;;;;;;4.93;2.80;;;;;;;23.13;nan;-24459.09;5090628;28;20161;-60
2022/10/09 11:36:37;;;;;;;3.55;2.53;;;;;;;22.80;nan;-24450.25;4988961;28;20629;-59
2022/10/09 11:39:08;;;;;;;3.47;2.67;;;;;;;23.05;nan;-24457.03;5077779;28;20665;-60
2022/10/09 11:41:35;;;;;;;3.78;2.58;;;;;;;23.19;nan;-24460.75;5090751;28;20218;-61
2022/10/09 11:44:32;;;;;;;3.67;2.63;;;;;;;23.18;nan;-24460.47;5072466;28;20201;-60
2022/10/09 11:47:43;;;;;;;4.20;2.80;;;;;;;23.57;nan;-24471.13;5090924;28;20629;-59
2022/10/09 11:50:34;;;;;;;2.92;2.10;;;;;;;23.17;nan;-24460.34;4988662;28;20188;-60
2022/10/09 11:53:09;;;;;;;3.45;2.47;;;;;;;23.04;nan;-24456.59;4988641;28;20181;-60
2022/10/09 11:55:34;;;;;;;3.83;2.30;;;;;;;23.31;nan;-24464.06;5049846;28;20197;-60
2022/10/09 11:58:13;;;;;;;3.72;2.50;;;;;;;23.46;nan;-24468.22;5070414;28;20184;-60
2022/10/09 12:00:39;;;;;;;3.65;2.40;;;;;;;23.63;nan;-24472.91;5070022;28;20506;-60
2022/10/09 12:03:06;;;;;;;3.85;2.50;;;;;;;23.98;nan;-24482.28;5070696;28;20197;-59